Terminal Aerodrome Forecast
Issued by NWS Lake Charles, LA

Home | Current Version | Previous Version | Text Only | Print | Product List | Glossary On
Versions: 1 2 3 4 5 6 7 8 9 10 11 12 13 14 15 16 17 18 19 20
000
FTUS44 KLCH 171743
TAFLFT
TAF
KLFT 171743Z 1718/1818 VRB03KT P6SM BKN007 BKN035
      TEMPO 1718/1720 OVC004
     FM172000 VRB03KT P6SM SCT007 BKN035
     FM180600 00000KT P6SM VCSH SCT007 OVC025
     FM180900 00000KT 2SM -SHRA BR OVC008
      TEMPO 1809/1812 1/2SM FG OVC004
     FM181300 VRB05KT P6SM -SHRA BKN008 OVC017=

USA.gov is the U.S. government's official web portal to all federal, state and local government web resources and services.